sensor_id;sensor_type;location;lat;lon;timestamp;P1;durP1;ratioP1;P2;durP2;ratioP2
14470;SDS011;7321;50.802;4.336;2022-11-20T00:01:08;59.60;;;36.30;;
14470;SDS011;7321;50.802;4.336;2022-11-20T00:03:38;64.20;;;36.53;;
14470;SDS011;7321;50.802;4.336;2022-11-20T00:06:08;58.70;;;35.80;;
14470;SDS011;7321;50.802;4.336;2022-11-20T00:08:35;60.23;;;36.53;;
14470;SDS011;7321;50.802;4.336;2022-11-20T00:11:02;63.77;;;38.43;;
14470;SDS011;7321;50.802;4.336;2022-11-20T00:13:30;65.70;;;37.67;;
14470;SDS011;7321;50.802;4.336;2022-11-20T00:15:57;63.47;;;38.70;;
14470;SDS011;7321;50.802;4.336;2022-11-20T00:18:24;61.30;;;37.90;;
14470;SDS011;7321;50.802;4.336;2022-11-20T00:20:50;59.30;;;35.40;;
14470;SDS011;7321;50.802;4.336;2022-11-20T00:23:16;59.23;;;36.97;;
14470;SDS011;7321;50.802;4.336;2022-11-20T00:25:42;56.70;;;36.17;;
14470;SDS011;7321;50.802;4.336;2022-11-20T00:28:08;55.07;;;35.23;;
14470;SDS011;7321;50.802;4.336;2022-11-20T00:30:33;62.13;;;36.00;;
14470;SDS011;7321;50.802;4.336;2022-11-20T00:32:59;54.23;;;34.83;;
14470;SDS011;7321;50.802;4.336;2022-11-20T00:35:25;65.00;;;37.27;;
14470;SDS011;7321;50.802;4.336;2022-11-20T00:37:50;60.40;;;37.43;;
14470;SDS011;7321;50.802;4.336;2022-11-20T00:40:16;56.67;;;36.07;;
14470;SDS011;7321;50.802;4.336;2022-11-20T00:42:42;63.20;;;37.47;;
14470;SDS011;7321;50.802;4.336;2022-11-20T00:45:08;61.53;;;36.77;;
14470;SDS011;7321;50.802;4.336;2022-11-20T00:47:33;61.40;;;35.83;;
14470;SDS011;7321;50.802;4.336;2022-11-20T00:49:59;56.80;;;34.60;;
14470;SDS011;7321;50.802;4.336;2022-11-20T00:52:25;59.27;;;35.80;;
14470;SDS011;7321;50.802;4.336;2022-11-20T00:54:51;62.17;;;36.73;;
14470;SDS011;7321;50.802;4.336;2022-11-20T00:57:16;56.50;;;35.63;;
14470;SDS011;7321;50.802;4.336;2022-11-20T00:59:42;59.00;;;36.73;;
14470;SDS011;7321;50.802;4.336;2022-11-20T01:02:08;59.57;;;35.57;;
14470;SDS011;7321;50.802;4.336;2022-11-20T01:04:34;55.93;;;35.20;;
14470;SDS011;7321;50.802;4.336;2022-11-20T01:06:59;55.00;;;33.87;;
14470;SDS011;7321;50.802;4.336;2022-11-20T01:09:25;57.97;;;36.23;;
14470;SDS011;7321;50.802;4.336;2022-11-20T01:11:51;60.40;;;36.33;;
14470;SDS011;7321;50.802;4.336;2022-11-20T01:14:18;55.67;;;33.90;;
14470;SDS011;7321;50.802;4.336;2022-11-20T01:16:46;52.93;;;33.77;;
14470;SDS011;7321;50.802;4.336;2022-11-20T01:19:14;52.27;;;34.43;;
14470;SDS011;7321;50.802;4.336;2022-11-20T01:21:43;53.97;;;33.57;;
14470;SDS011;7321;50.802;4.336;2022-11-20T01:24:13;53.83;;;33.30;;
14470;SDS011;7321;50.802;4.336;2022-11-20T01:26:42;53.37;;;34.17;;
14470;SDS011;7321;50.802;4.336;2022-11-20T01:29:22;55.63;;;33.47;;
14470;SDS011;7321;50.802;4.336;2022-11-20T01:31:49;53.63;;;33.83;;
14470;SDS011;7321;50.802;4.336;2022-11-20T01:34:16;51.20;;;32.70;;
14470;SDS011;7321;50.802;4.336;2022-11-20T01:36:43;55.40;;;33.47;;
14470;SDS011;7321;50.802;4.336;2022-11-20T01:39:14;50.63;;;33.13;;
14470;SDS011;7321;50.802;4.336;2022-11-20T01:41:45;52.97;;;32.97;;
14470;SDS011;7321;50.802;4.336;2022-11-20T01:50:30;54.50;;;33.43;;
14470;SDS011;7321;50.802;4.336;2022-11-20T01:52:52;55.10;;;34.17;;
14470;SDS011;7321;50.802;4.336;2022-11-20T01:55:23;49.13;;;32.13;;
14470;SDS011;7321;50.802;4.336;2022-11-20T01:57:52;60.17;;;33.77;;
14470;SDS011;7321;50.802;4.336;2022-11-20T02:00:18;58.43;;;34.97;;
14470;SDS011;7321;50.802;4.336;2022-11-20T02:02:47;53.57;;;34.17;;
14470;SDS011;7321;50.802;4.336;2022-11-20T02:05:18;59.00;;;35.67;;
14470;SDS011;7321;50.802;4.336;2022-11-20T02:07:55;59.90;;;34.87;;
14470;SDS011;7321;50.802;4.336;2022-11-20T02:10:23;61.57;;;34.40;;
14470;SDS011;7321;50.802;4.336;2022-11-20T02:12:49;60.00;;;35.43;;
14470;SDS011;7321;50.802;4.336;2022-11-20T02:15:33;60.30;;;34.90;;
14470;SDS011;7321;50.802;4.336;2022-11-20T02:17:59;62.50;;;34.73;;
14470;SDS011;7321;50.802;4.336;2022-11-20T02:20:25;54.23;;;33.60;;
14470;SDS011;7321;50.802;4.336;2022-11-20T02:25:25;54.27;;;33.20;;
14470;SDS011;7321;50.802;4.336;2022-11-20T02:27:53;57.37;;;33.23;;
14470;SDS011;7321;50.802;4.336;2022-11-20T02:30:19;64.03;;;35.60;;
14470;SDS011;7321;50.802;4.336;2022-11-20T02:32:45;58.27;;;34.60;;
14470;SDS011;7321;50.802;4.336;2022-11-20T02:37:50;56.50;;;32.97;;
14470;SDS011;7321;50.802;4.336;2022-11-20T02:40:18;64.13;;;33.43;;
14470;SDS011;7321;50.802;4.336;2022-11-20T02:42:44;59.70;;;34.10;;
14470;SDS011;7321;50.802;4.336;2022-11-20T02:45:10;59.60;;;32.97;;
14470;SDS011;7321;50.802;4.336;2022-11-20T02:47:36;59.10;;;33.40;;
14470;SDS011;7321;50.802;4.336;2022-11-20T02:50:03;58.10;;;32.97;;
14470;SDS011;7321;50.802;4.336;2022-11-20T02:52:30;57.50;;;32.73;;
14470;SDS011;7321;50.802;4.336;2022-11-20T02:54:56;54.57;;;30.93;;
14470;SDS011;7321;50.802;4.336;2022-11-20T02:57:21;56.30;;;32.20;;
14470;SDS011;7321;50.802;4.336;2022-11-20T02:59:47;59.80;;;31.43;;
14470;SDS011;7321;50.802;4.336;2022-11-20T03:02:13;53.93;;;31.23;;
14470;SDS011;7321;50.802;4.336;2022-11-20T03:04:39;50.80;;;30.67;;
14470;SDS011;7321;50.802;4.336;2022-11-20T03:07:04;53.07;;;30.80;;
14470;SDS011;7321;50.802;4.336;2022-11-20T03:09:30;53.47;;;30.97;;
14470;SDS011;7321;50.802;4.336;2022-11-20T03:11:56;49.13;;;30.30;;
14470;SDS011;7321;50.802;4.336;2022-11-20T03:14:22;49.23;;;30.10;;
14470;SDS011;7321;50.802;4.336;2022-11-20T03:16:49;53.30;;;30.37;;
14470;SDS011;7321;50.802;4.336;2022-11-20T03:19:14;48.07;;;28.60;;
14470;SDS011;7321;50.802;4.336;2022-11-20T03:21:40;55.63;;;29.03;;
14470;SDS011;7321;50.802;4.336;2022-11-20T03:24:06;49.20;;;28.83;;
14470;SDS011;7321;50.802;4.336;2022-11-20T03:26:32;45.17;;;28.57;;
14470;SDS011;7321;50.802;4.336;2022-11-20T03:28:59;47.37;;;29.43;;
14470;SDS011;7321;50.802;4.336;2022-11-20T03:31:31;48.83;;;27.80;;
14470;SDS011;7321;50.802;4.336;2022-11-20T03:33:59;46.67;;;26.80;;
14470;SDS011;7321;50.802;4.336;2022-11-20T03:36:26;46.90;;;28.07;;
14470;SDS011;7321;50.802;4.336;2022-11-20T03:38:52;50.37;;;27.30;;
14470;SDS011;7321;50.802;4.336;2022-11-20T03:41:20;45.07;;;26.70;;
14470;SDS011;7321;50.802;4.336;2022-11-20T03:43:48;45.03;;;27.87;;
14470;SDS011;7321;50.802;4.336;2022-11-20T03:46:15;44.93;;;26.33;;
14470;SDS011;7321;50.802;4.336;2022-11-20T03:48:41;47.70;;;27.47;;
14470;SDS011;7321;50.802;4.336;2022-11-20T03:51:08;46.77;;;27.07;;
14470;SDS011;7321;50.802;4.336;2022-11-20T03:53:34;44.90;;;26.87;;
14470;SDS011;7321;50.802;4.336;2022-11-20T03:56:00;43.77;;;27.03;;
14470;SDS011;7321;50.802;4.336;2022-11-20T03:58:26;42.13;;;25.73;;
14470;SDS011;7321;50.802;4.336;2022-11-20T04:00:51;44.50;;;25.90;;
14470;SDS011;7321;50.802;4.336;2022-11-20T04:03:17;45.90;;;27.03;;
14470;SDS011;7321;50.802;4.336;2022-11-20T04:05:43;46.03;;;28.60;;
14470;SDS011;7321;50.802;4.336;2022-11-20T04:08:09;45.43;;;27.33;;
14470;SDS011;7321;50.802;4.336;2022-11-20T04:10:34;46.17;;;26.97;;
14470;SDS011;7321;50.802;4.336;2022-11-20T04:13:00;46.87;;;26.23;;
14470;SDS011;7321;50.802;4.336;2022-11-20T04:15:26;42.07;;;26.17;;
14470;SDS011;7321;50.802;4.336;2022-11-20T04:17:52;45.10;;;25.50;;
14470;SDS011;7321;50.802;4.336;2022-11-20T04:20:19;40.60;;;26.37;;
14470;SDS011;7321;50.802;4.336;2022-11-20T04:22:45;44.53;;;25.73;;
14470;SDS011;7321;50.802;4.336;2022-11-20T04:25:11;46.40;;;26.53;;
14470;SDS011;7321;50.802;4.336;2022-11-20T04:27:37;48.90;;;28.70;;
14470;SDS011;7321;50.802;4.336;2022-11-20T04:30:03;47.50;;;26.60;;
14470;SDS011;7321;50.802;4.336;2022-11-20T04:32:29;51.20;;;28.43;;
14470;SDS011;7321;50.802;4.336;2022-11-20T04:34:54;58.47;;;29.83;;
14470;SDS011;7321;50.802;4.336;2022-11-20T04:37:20;53.07;;;28.83;;
14470;SDS011;7321;50.802;4.336;2022-11-20T04:39:46;51.93;;;28.13;;
14470;SDS011;7321;50.802;4.336;2022-11-20T04:42:11;54.27;;;28.10;;
14470;SDS011;7321;50.802;4.336;2022-11-20T04:44:55;54.20;;;29.67;;
14470;SDS011;7321;50.802;4.336;2022-11-20T04:47:21;60.50;;;30.97;;
14470;SDS011;7321;50.802;4.336;2022-11-20T04:49:47;60.07;;;29.77;;
14470;SDS011;7321;50.802;4.336;2022-11-20T04:52:13;54.50;;;30.73;;
14470;SDS011;7321;50.802;4.336;2022-11-20T04:54:39;54.10;;;30.37;;
14470;SDS011;7321;50.802;4.336;2022-11-20T04:57:04;55.77;;;30.63;;
14470;SDS011;7321;50.802;4.336;2022-11-20T04:59:30;58.97;;;29.80;;
14470;SDS011;7321;50.802;4.336;2022-11-20T05:01:56;58.53;;;29.77;;
14470;SDS011;7321;50.802;4.336;2022-11-20T05:04:22;59.33;;;28.87;;
14470;SDS011;7321;50.802;4.336;2022-11-20T05:06:49;59.43;;;30.93;;
14470;SDS011;7321;50.802;4.336;2022-11-20T05:09:15;61.30;;;32.63;;
14470;SDS011;7321;50.802;4.336;2022-11-20T05:11:40;62.80;;;31.87;;
14470;SDS011;7321;50.802;4.336;2022-11-20T05:14:06;57.07;;;30.10;;
14470;SDS011;7321;50.802;4.336;2022-11-20T05:16:33;64.60;;;31.30;;
14470;SDS011;7321;50.802;4.336;2022-11-20T05:19:01;57.20;;;29.37;;
14470;SDS011;7321;50.802;4.336;2022-11-20T05:21:29;61.10;;;31.13;;
14470;SDS011;7321;50.802;4.336;2022-11-20T05:23:56;62.13;;;32.63;;
14470;SDS011;7321;50.802;4.336;2022-11-20T05:26:21;64.93;;;32.10;;
14470;SDS011;7321;50.802;4.336;2022-11-20T05:28:48;65.40;;;31.77;;
14470;SDS011;7321;50.802;4.336;2022-11-20T05:31:15;65.67;;;32.40;;
14470;SDS011;7321;50.802;4.336;2022-11-20T05:33:43;65.30;;;33.60;;
14470;SDS011;7321;50.802;4.336;2022-11-20T05:36:10;67.57;;;32.33;;
14470;SDS011;7321;50.802;4.336;2022-11-20T05:38:38;62.13;;;31.80;;
14470;SDS011;7321;50.802;4.336;2022-11-20T05:41:11;67.93;;;32.90;;
14470;SDS011;7321;50.802;4.336;2022-11-20T05:43:42;64.60;;;32.17;;
14470;SDS011;7321;50.802;4.336;2022-11-20T05:46:09;65.73;;;32.13;;
14470;SDS011;7321;50.802;4.336;2022-11-20T05:48:37;70.90;;;33.83;;
14470;SDS011;7321;50.802;4.336;2022-11-20T05:51:05;67.97;;;33.57;;
14470;SDS011;7321;50.802;4.336;2022-11-20T05:53:33;64.97;;;32.07;;
14470;SDS011;7321;50.802;4.336;2022-11-20T05:56:04;72.20;;;32.80;;
14470;SDS011;7321;50.802;4.336;2022-11-20T05:58:31;68.90;;;32.17;;
14470;SDS011;7321;50.802;4.336;2022-11-20T06:01:05;69.27;;;32.50;;
14470;SDS011;7321;50.802;4.336;2022-11-20T06:03:36;67.53;;;30.83;;
14470;SDS011;7321;50.802;4.336;2022-11-20T06:06:03;71.93;;;33.47;;
14470;SDS011;7321;50.802;4.336;2022-11-20T06:08:29;76.90;;;33.40;;
14470;SDS011;7321;50.802;4.336;2022-11-20T06:10:55;73.77;;;33.03;;
14470;SDS011;7321;50.802;4.336;2022-11-20T06:13:22;74.77;;;33.57;;
14470;SDS011;7321;50.802;4.336;2022-11-20T06:15:51;70.23;;;31.57;;
14470;SDS011;7321;50.802;4.336;2022-11-20T06:18:18;61.33;;;30.40;;
14470;SDS011;7321;50.802;4.336;2022-11-20T06:20:45;70.97;;;33.77;;
14470;SDS011;7321;50.802;4.336;2022-11-20T06:23:11;67.77;;;33.00;;
14470;SDS011;7321;50.802;4.336;2022-11-20T06:25:40;68.80;;;32.47;;
14470;SDS011;7321;50.802;4.336;2022-11-20T06:28:07;70.03;;;31.87;;
14470;SDS011;7321;50.802;4.336;2022-11-20T06:30:34;66.57;;;30.60;;
14470;SDS011;7321;50.802;4.336;2022-11-20T06:33:00;68.10;;;32.77;;
14470;SDS011;7321;50.802;4.336;2022-11-20T06:35:26;67.73;;;32.17;;
14470;SDS011;7321;50.802;4.336;2022-11-20T06:37:52;68.00;;;31.87;;
14470;SDS011;7321;50.802;4.336;2022-11-20T06:40:18;84.03;;;33.23;;
14470;SDS011;7321;50.802;4.336;2022-11-20T06:42:44;68.87;;;31.43;;
14470;SDS011;7321;50.802;4.336;2022-11-20T06:45:10;62.43;;;31.13;;
14470;SDS011;7321;50.802;4.336;2022-11-20T06:47:35;65.23;;;30.97;;
14470;SDS011;7321;50.802;4.336;2022-11-20T06:50:01;60.20;;;30.47;;
14470;SDS011;7321;50.802;4.336;2022-11-20T06:52:27;59.00;;;29.47;;
14470;SDS011;7321;50.802;4.336;2022-11-20T06:54:53;64.37;;;32.93;;
14470;SDS011;7321;50.802;4.336;2022-11-20T06:57:18;63.50;;;31.13;;
14470;SDS011;7321;50.802;4.336;2022-11-20T06:59:44;56.77;;;29.97;;
14470;SDS011;7321;50.802;4.336;2022-11-20T07:02:10;65.53;;;30.60;;
14470;SDS011;7321;50.802;4.336;2022-11-20T07:04:37;58.87;;;29.33;;
14470;SDS011;7321;50.802;4.336;2022-11-20T07:07:03;60.47;;;29.53;;
14470;SDS011;7321;50.802;4.336;2022-11-20T07:09:29;55.17;;;28.83;;
14470;SDS011;7321;50.802;4.336;2022-11-20T07:11:55;56.27;;;29.43;;
14470;SDS011;7321;50.802;4.336;2022-11-20T07:14:20;56.23;;;27.70;;
14470;SDS011;7321;50.802;4.336;2022-11-20T07:16:46;55.43;;;27.60;;
14470;SDS011;7321;50.802;4.336;2022-11-20T07:19:12;54.80;;;28.90;;
14470;SDS011;7321;50.802;4.336;2022-11-20T07:21:37;53.90;;;27.50;;
14470;SDS011;7321;50.802;4.336;2022-11-20T07:24:03;53.13;;;28.13;;
14470;SDS011;7321;50.802;4.336;2022-11-20T07:26:29;55.07;;;28.07;;
14470;SDS011;7321;50.802;4.336;2022-11-20T07:28:55;56.87;;;27.97;;
14470;SDS011;7321;50.802;4.336;2022-11-20T07:31:21;55.47;;;28.57;;
14470;SDS011;7321;50.802;4.336;2022-11-20T07:33:47;57.13;;;28.00;;
14470;SDS011;7321;50.802;4.336;2022-11-20T07:36:12;57.77;;;28.80;;
14470;SDS011;7321;50.802;4.336;2022-11-20T07:38:38;60.53;;;28.30;;
14470;SDS011;7321;50.802;4.336;2022-11-20T07:41:04;61.47;;;30.37;;
14470;SDS011;7321;50.802;4.336;2022-11-20T07:43:30;55.53;;;28.33;;
14470;SDS011;7321;50.802;4.336;2022-11-20T07:45:56;59.20;;;28.17;;
14470;SDS011;7321;50.802;4.336;2022-11-20T07:48:23;58.93;;;28.10;;
14470;SDS011;7321;50.802;4.336;2022-11-20T07:50:49;56.03;;;28.40;;
14470;SDS011;7321;50.802;4.336;2022-11-20T07:53:17;58.20;;;27.67;;
14470;SDS011;7321;50.802;4.336;2022-11-20T07:55:46;53.07;;;28.07;;
14470;SDS011;7321;50.802;4.336;2022-11-20T07:58:11;61.37;;;28.03;;
14470;SDS011;7321;50.802;4.336;2022-11-20T08:00:40;56.03;;;28.67;;
14470;SDS011;7321;50.802;4.336;2022-11-20T08:03:06;57.10;;;27.53;;
14470;SDS011;7321;50.802;4.336;2022-11-20T08:05:32;64.43;;;28.03;;
14470;SDS011;7321;50.802;4.336;2022-11-20T08:07:58;55.67;;;27.60;;
14470;SDS011;7321;50.802;4.336;2022-11-20T08:10:25;54.40;;;27.33;;
14470;SDS011;7321;50.802;4.336;2022-11-20T08:12:52;59.00;;;28.63;;
14470;SDS011;7321;50.802;4.336;2022-11-20T08:15:37;63.27;;;29.27;;
14470;SDS011;7321;50.802;4.336;2022-11-20T08:18:08;58.43;;;29.40;;
14470;SDS011;7321;50.802;4.336;2022-11-20T08:20:36;59.50;;;29.17;;
14470;SDS011;7321;50.802;4.336;2022-11-20T08:23:03;57.50;;;27.43;;
14470;SDS011;7321;50.802;4.336;2022-11-20T08:25:31;59.57;;;28.70;;
14470;SDS011;7321;50.802;4.336;2022-11-20T08:27:58;57.47;;;28.63;;
14470;SDS011;7321;50.802;4.336;2022-11-20T08:30:24;61.90;;;27.97;;
14470;SDS011;7321;50.802;4.336;2022-11-20T08:32:51;62.37;;;28.80;;
14470;SDS011;7321;50.802;4.336;2022-11-20T08:35:16;58.73;;;27.23;;
14470;SDS011;7321;50.802;4.336;2022-11-20T08:37:45;57.30;;;26.93;;
14470;SDS011;7321;50.802;4.336;2022-11-20T08:40:12;58.13;;;27.43;;
14470;SDS011;7321;50.802;4.336;2022-11-20T08:42:45;55.20;;;25.83;;
14470;SDS011;7321;50.802;4.336;2022-11-20T08:45:15;54.23;;;25.77;;
14470;SDS011;7321;50.802;4.336;2022-11-20T08:47:41;56.10;;;26.57;;
14470;SDS011;7321;50.802;4.336;2022-11-20T08:50:12;52.57;;;26.93;;
14470;SDS011;7321;50.802;4.336;2022-11-20T08:52:39;56.07;;;26.60;;
14470;SDS011;7321;50.802;4.336;2022-11-20T08:55:05;52.77;;;26.47;;
14470;SDS011;7321;50.802;4.336;2022-11-20T08:57:32;50.23;;;26.13;;
14470;SDS011;7321;50.802;4.336;2022-11-20T08:59:59;47.00;;;24.43;;
14470;SDS011;7321;50.802;4.336;2022-11-20T09:02:28;49.13;;;26.70;;
14470;SDS011;7321;50.802;4.336;2022-11-20T09:04:54;49.53;;;25.60;;
14470;SDS011;7321;50.802;4.336;2022-11-20T09:07:20;48.63;;;25.50;;
14470;SDS011;7321;50.802;4.336;2022-11-20T09:09:46;44.07;;;24.97;;
14470;SDS011;7321;50.802;4.336;2022-11-20T09:12:12;44.50;;;24.83;;
14470;SDS011;7321;50.802;4.336;2022-11-20T09:14:38;47.47;;;25.37;;
14470;SDS011;7321;50.802;4.336;2022-11-20T09:17:04;46.93;;;25.80;;
14470;SDS011;7321;50.802;4.336;2022-11-20T09:19:32;46.77;;;24.57;;
14470;SDS011;7321;50.802;4.336;2022-11-20T09:21:58;49.93;;;24.53;;
14470;SDS011;7321;50.802;4.336;2022-11-20T09:24:25;43.03;;;24.00;;
14470;SDS011;7321;50.802;4.336;2022-11-20T09:26:51;40.80;;;23.30;;
14470;SDS011;7321;50.802;4.336;2022-11-20T09:29:17;39.73;;;24.33;;
14470;SDS011;7321;50.802;4.336;2022-11-20T09:31:43;39.20;;;22.27;;
14470;SDS011;7321;50.802;4.336;2022-11-20T09:34:09;36.50;;;22.53;;
14470;SDS011;7321;50.802;4.336;2022-11-20T09:36:35;39.90;;;22.03;;
14470;SDS011;7321;50.802;4.336;2022-11-20T09:39:01;35.00;;;21.80;;
14470;SDS011;7321;50.802;4.336;2022-11-20T09:41:31;31.90;;;19.87;;
14470;SDS011;7321;50.802;4.336;2022-11-20T09:44:30;31.87;;;19.53;;
14470;SDS011;7321;50.802;4.336;2022-11-20T09:47:01;31.27;;;19.67;;
14470;SDS011;7321;50.802;4.336;2022-11-20T09:49:47;33.03;;;17.70;;
14470;SDS011;7321;50.802;4.336;2022-11-20T09:55:36;27.10;;;17.50;;
14470;SDS011;7321;50.802;4.336;2022-11-20T09:58:05;26.40;;;16.57;;
14470;SDS011;7321;50.802;4.336;2022-11-20T10:00:32;25.70;;;16.13;;
14470;SDS011;7321;50.802;4.336;2022-11-20T10:03:13;25.03;;;15.10;;
14470;SDS011;7321;50.802;4.336;2022-11-20T10:05:51;21.97;;;14.33;;
14470;SDS011;7321;50.802;4.336;2022-11-20T10:11:23;20.73;;;13.00;;
14470;SDS011;7321;50.802;4.336;2022-11-20T10:16:42;18.07;;;11.27;;
14470;SDS011;7321;50.802;4.336;2022-11-20T10:25:15;13.33;;;7.73;;
14470;SDS011;7321;50.802;4.336;2022-11-20T10:30:31;10.33;;;7.33;;
14470;SDS011;7321;50.802;4.336;2022-11-20T10:33:06;10.07;;;6.33;;
14470;SDS011;7321;50.802;4.336;2022-11-20T10:41:20;12.80;;;9.07;;
14470;SDS011;7321;50.802;4.336;2022-11-20T10:44:04;8.97;;;6.63;;
14470;SDS011;7321;50.802;4.336;2022-11-20T10:46:39;11.10;;;6.33;;
14470;SDS011;7321;50.802;4.336;2022-11-20T10:49:15;10.37;;;6.17;;
14470;SDS011;7321;50.802;4.336;2022-11-20T10:56:56;9.60;;;5.53;;
14470;SDS011;7321;50.802;4.336;2022-11-20T11:02:24;11.10;;;5.77;;
14470;SDS011;7321;50.802;4.336;2022-11-20T11:05:14;8.07;;;4.93;;
14470;SDS011;7321;50.802;4.336;2022-11-20T11:07:57;8.57;;;5.20;;
14470;SDS011;7321;50.802;4.336;2022-11-20T11:10:32;7.20;;;5.47;;
14470;SDS011;7321;50.802;4.336;2022-11-20T11:13:06;7.80;;;4.90;;
14470;SDS011;7321;50.802;4.336;2022-11-20T11:15:37;7.87;;;4.67;;
14470;SDS011;7321;50.802;4.336;2022-11-20T11:18:07;7.73;;;4.40;;
14470;SDS011;7321;50.802;4.336;2022-11-20T11:20:35;8.57;;;5.10;;
14470;SDS011;7321;50.802;4.336;2022-11-20T11:23:01;8.70;;;6.37;;
14470;SDS011;7321;50.802;4.336;2022-11-20T11:25:55;9.13;;;4.87;;
14470;SDS011;7321;50.802;4.336;2022-11-20T11:28:27;8.67;;;4.60;;
14470;SDS011;7321;50.802;4.336;2022-11-20T11:31:00;7.20;;;5.00;;
14470;SDS011;7321;50.802;4.336;2022-11-20T11:33:27;6.57;;;5.10;;
14470;SDS011;7321;50.802;4.336;2022-11-20T11:36:03;11.17;;;4.43;;
14470;SDS011;7321;50.802;4.336;2022-11-20T11:38:41;9.53;;;5.30;;
14470;SDS011;7321;50.802;4.336;2022-11-20T11:41:09;5.97;;;4.27;;
14470;SDS011;7321;50.802;4.336;2022-11-20T11:43:54;6.13;;;3.90;;
14470;SDS011;7321;50.802;4.336;2022-11-20T11:46:49;7.97;;;4.70;;
14470;SDS011;7321;50.802;4.336;2022-11-20T11:49:20;7.10;;;4.23;;
14470;SDS011;7321;50.802;4.336;2022-11-20T11:52:04;6.93;;;4.20;;
14470;SDS011;7321;50.802;4.336;2022-11-20T11:54:41;7.60;;;4.07;;
14470;SDS011;7321;50.802;4.336;2022-11-20T12:00:15;7.03;;;4.40;;
14470;SDS011;7321;50.802;4.336;2022-11-20T12:05:16;6.27;;;4.53;;
14470;SDS011;7321;50.802;4.336;2022-11-20T12:08:21;5.87;;;4.70;;
14470;SDS011;7321;50.802;4.336;2022-11-20T12:11:18;8.93;;;4.50;;
14470;SDS011;7321;50.802;4.336;2022-11-20T12:14:41;6.93;;;4.40;;
14470;SDS011;7321;50.802;4.336;2022-11-20T12:17:20;8.43;;;5.10;;
14470;SDS011;7321;50.802;4.336;2022-11-20T12:19:49;7.67;;;3.80;;
14470;SDS011;7321;50.802;4.336;2022-11-20T12:22:21;6.27;;;4.67;;
14470;SDS011;7321;50.802;4.336;2022-11-20T12:36:24;6.87;;;4.90;;
14470;SDS011;7321;50.802;4.336;2022-11-20T12:39:05;6.67;;;4.70;;
14470;SDS011;7321;50.802;4.336;2022-11-20T12:41:51;9.80;;;4.20;;
14470;SDS011;7321;50.802;4.336;2022-11-20T12:58:49;7.27;;;4.30;;
14470;SDS011;7321;50.802;4.336;2022-11-20T13:01:36;7.40;;;4.67;;
14470;SDS011;7321;50.802;4.336;2022-11-20T13:04:39;7.93;;;4.27;;
14470;SDS011;7321;50.802;4.336;2022-11-20T13:07:29;7.30;;;4.43;;
14470;SDS011;7321;50.802;4.336;2022-11-20T13:09:57;6.90;;;4.90;;
14470;SDS011;7321;50.802;4.336;2022-11-20T13:12:35;6.37;;;5.10;;
14470;SDS011;7321;50.802;4.336;2022-11-20T13:18:11;7.10;;;4.90;;
14470;SDS011;7321;50.802;4.336;2022-11-20T13:20:41;8.87;;;4.80;;
14470;SDS011;7321;50.802;4.336;2022-11-20T13:23:22;6.77;;;4.97;;
14470;SDS011;7321;50.802;4.336;2022-11-20T13:26:03;6.07;;;4.83;;
14470;SDS011;7321;50.802;4.336;2022-11-20T13:28:30;4.87;;;4.30;;
14470;SDS011;7321;50.802;4.336;2022-11-20T13:30:59;6.40;;;4.53;;
14470;SDS011;7321;50.802;4.336;2022-11-20T13:33:30;7.53;;;5.03;;
14470;SDS011;7321;50.802;4.336;2022-11-20T13:35:59;6.17;;;4.53;;
14470;SDS011;7321;50.802;4.336;2022-11-20T13:38:28;4.77;;;4.30;;
14470;SDS011;7321;50.802;4.336;2022-11-20T13:41:22;5.80;;;4.73;;
14470;SDS011;7321;50.802;4.336;2022-11-20T13:44:04;5.43;;;4.93;;
14470;SDS011;7321;50.802;4.336;2022-11-20T13:46:48;5.47;;;4.57;;
14470;SDS011;7321;50.802;4.336;2022-11-20T13:55:00;3.73;;;3.23;;
14470;SDS011;7321;50.802;4.336;2022-11-20T13:57:42;6.10;;;3.70;;
14470;SDS011;7321;50.802;4.336;2022-11-20T14:00:18;4.40;;;3.13;;
14470;SDS011;7321;50.802;4.336;2022-11-20T14:02:57;4.40;;;2.87;;
14470;SDS011;7321;50.802;4.336;2022-11-20T14:05:40;4.23;;;3.10;;
14470;SDS011;7321;50.802;4.336;2022-11-20T14:08:24;3.70;;;3.30;;
14470;SDS011;7321;50.802;4.336;2022-11-20T14:11:05;3.47;;;2.60;;
14470;SDS011;7321;50.802;4.336;2022-11-20T14:13:38;3.97;;;3.03;;
14470;SDS011;7321;50.802;4.336;2022-11-20T14:16:04;4.33;;;3.07;;
14470;SDS011;7321;50.802;4.336;2022-11-20T14:18:33;3.93;;;3.57;;
14470;SDS011;7321;50.802;4.336;2022-11-20T14:21:01;3.53;;;3.10;;
14470;SDS011;7321;50.802;4.336;2022-11-20T14:23:29;3.20;;;2.90;;
14470;SDS011;7321;50.802;4.336;2022-11-20T14:25:55;3.60;;;3.30;;
14470;SDS011;7321;50.802;4.336;2022-11-20T14:28:28;4.60;;;3.40;;
14470;SDS011;7321;50.802;4.336;2022-11-20T14:30:55;4.53;;;3.93;;
14470;SDS011;7321;50.802;4.336;2022-11-20T14:33:22;6.83;;;4.70;;
14470;SDS011;7321;50.802;4.336;2022-11-20T14:35:51;5.10;;;4.20;;
14470;SDS011;7321;50.802;4.336;2022-11-20T14:38:21;4.80;;;3.97;;
14470;SDS011;7321;50.802;4.336;2022-11-20T14:40:52;4.40;;;3.90;;
14470;SDS011;7321;50.802;4.336;2022-11-20T14:43:25;4.17;;;3.77;;
14470;SDS011;7321;50.802;4.336;2022-11-20T14:45:55;4.00;;;3.50;;
14470;SDS011;7321;50.802;4.336;2022-11-20T14:48:31;6.17;;;4.20;;
14470;SDS011;7321;50.802;4.336;2022-11-20T14:54:11;4.60;;;3.90;;
14470;SDS011;7321;50.802;4.336;2022-11-20T14:56:41;4.73;;;4.10;;
14470;SDS011;7321;50.802;4.336;2022-11-20T14:59:07;4.93;;;4.10;;
14470;SDS011;7321;50.802;4.336;2022-11-20T15:01:34;4.63;;;4.23;;
14470;SDS011;7321;50.802;4.336;2022-11-20T15:04:08;10.77;;;9.17;;
14470;SDS011;7321;50.802;4.336;2022-11-20T15:06:36;6.90;;;4.70;;
14470;SDS011;7321;50.802;4.336;2022-11-20T15:09:12;5.10;;;4.60;;
14470;SDS011;7321;50.802;4.336;2022-11-20T15:14:45;5.40;;;4.50;;
14470;SDS011;7321;50.802;4.336;2022-11-20T15:17:46;8.27;;;5.90;;
14470;SDS011;7321;50.802;4.336;2022-11-20T15:20:26;7.13;;;4.53;;
14470;SDS011;7321;50.802;4.336;2022-11-20T15:23:16;6.83;;;5.23;;
14470;SDS011;7321;50.802;4.336;2022-11-20T15:25:47;5.67;;;4.50;;
14470;SDS011;7321;50.802;4.336;2022-11-20T15:31:05;5.77;;;4.73;;
14470;SDS011;7321;50.802;4.336;2022-11-20T15:33:54;7.70;;;5.00;;
14470;SDS011;7321;50.802;4.336;2022-11-20T15:36:23;7.10;;;5.70;;
14470;SDS011;7321;50.802;4.336;2022-11-20T15:38:54;8.53;;;7.10;;
14470;SDS011;7321;50.802;4.336;2022-11-20T15:41:20;9.80;;;7.37;;
14470;SDS011;7321;50.802;4.336;2022-11-20T15:43:46;8.80;;;5.87;;
14470;SDS011;7321;50.802;4.336;2022-11-20T15:46:15;11.53;;;7.80;;
14470;SDS011;7321;50.802;4.336;2022-11-20T15:49:15;66.73;;;39.30;;
14470;SDS011;7321;50.802;4.336;2022-11-20T15:51:49;13.63;;;10.33;;
14470;SDS011;7321;50.802;4.336;2022-11-20T15:54:23;10.43;;;8.40;;
14470;SDS011;7321;50.802;4.336;2022-11-20T15:56:49;10.23;;;6.53;;
14470;SDS011;7321;50.802;4.336;2022-11-20T15:59:20;14.13;;;9.47;;
14470;SDS011;7321;50.802;4.336;2022-11-20T16:01:49;12.93;;;8.20;;
14470;SDS011;7321;50.802;4.336;2022-11-20T16:04:16;12.53;;;8.33;;
14470;SDS011;7321;50.802;4.336;2022-11-20T16:06:48;11.40;;;6.80;;
14470;SDS011;7321;50.802;4.336;2022-11-20T16:09:23;11.87;;;7.83;;
14470;SDS011;7321;50.802;4.336;2022-11-20T16:11:55;17.23;;;10.93;;
14470;SDS011;7321;50.802;4.336;2022-11-20T16:14:34;11.90;;;6.27;;
14470;SDS011;7321;50.802;4.336;2022-11-20T16:17:19;24.10;;;15.27;;
14470;SDS011;7321;50.802;4.336;2022-11-20T16:20:26;18.67;;;9.93;;
14470;SDS011;7321;50.802;4.336;2022-11-20T16:23:04;14.87;;;9.53;;
14470;SDS011;7321;50.802;4.336;2022-11-20T16:25:37;12.90;;;6.03;;
14470;SDS011;7321;50.802;4.336;2022-11-20T16:28:05;16.20;;;9.30;;
14470;SDS011;7321;50.802;4.336;2022-11-20T16:30:32;8.40;;;7.10;;
14470;SDS011;7321;50.802;4.336;2022-11-20T16:33:00;8.67;;;5.20;;